sensor_id;sensor_type;location;lat;lon;timestamp;temperature;humidity
57829;DHT22;43657;52.698;6.314;2022-11-27T00:01:19;5.40;99.90
57829;DHT22;43657;52.698;6.314;2022-11-27T00:03:45;5.30;99.90
57829;DHT22;43657;52.698;6.314;2022-11-27T00:06:13;5.30;99.90
57829;DHT22;43657;52.698;6.314;2022-11-27T00:08:40;5.30;99.90
57829;DHT22;43657;52.698;6.314;2022-11-27T00:11:15;5.30;99.90
57829;DHT22;43657;52.698;6.314;2022-11-27T00:13:41;5.30;99.90
57829;DHT22;43657;52.698;6.314;2022-11-27T00:16:07;5.30;99.90
57829;DHT22;43657;52.698;6.314;2022-11-27T00:18:33;5.30;99.90
57829;DHT22;43657;52.698;6.314;2022-11-27T00:21:11;5.30;99.90
57829;DHT22;43657;52.698;6.314;2022-11-27T00:23:37;5.30;99.90
57829;DHT22;43657;52.698;6.314;2022-11-27T00:26:04;5.30;99.90
57829;DHT22;43657;52.698;6.314;2022-11-27T00:28:30;5.30;99.90
57829;DHT22;43657;52.698;6.314;2022-11-27T00:31:00;5.30;99.90
57829;DHT22;43657;52.698;6.314;2022-11-27T00:33:28;5.20;99.90
57829;DHT22;43657;52.698;6.314;2022-11-27T00:35:54;5.20;99.90
57829;DHT22;43657;52.698;6.314;2022-11-27T00:38:20;5.20;99.90
57829;DHT22;43657;52.698;6.314;2022-11-27T00:40:46;5.20;99.90
57829;DHT22;43657;52.698;6.314;2022-11-27T00:43:12;5.20;99.90
57829;DHT22;43657;52.698;6.314;2022-11-27T00:45:38;5.20;99.90
57829;DHT22;43657;52.698;6.314;2022-11-27T00:48:04;5.30;99.90
57829;DHT22;43657;52.698;6.314;2022-11-27T00:50:30;5.20;99.90
57829;DHT22;43657;52.698;6.314;2022-11-27T00:52:59;5.10;99.90
57829;DHT22;43657;52.698;6.314;2022-11-27T00:55:25;5.10;99.90
57829;DHT22;43657;52.698;6.314;2022-11-27T00:57:51;5.10;99.90
57829;DHT22;43657;52.698;6.314;2022-11-27T01:00:17;5.10;99.90
57829;DHT22;43657;52.698;6.314;2022-11-27T01:02:43;5.00;99.90
57829;DHT22;43657;52.698;6.314;2022-11-27T01:05:09;5.00;99.90
57829;DHT22;43657;52.698;6.314;2022-11-27T01:07:35;5.00;99.90
57829;DHT22;43657;52.698;6.314;2022-11-27T01:10:00;5.00;99.90
57829;DHT22;43657;52.698;6.314;2022-11-27T01:12:26;5.00;99.90
57829;DHT22;43657;52.698;6.314;2022-11-27T01:14:52;4.90;99.90
57829;DHT22;43657;52.698;6.314;2022-11-27T01:17:17;4.90;99.90
57829;DHT22;43657;52.698;6.314;2022-11-27T01:19:43;4.80;99.90
57829;DHT22;43657;52.698;6.314;2022-11-27T01:22:09;4.80;99.90
57829;DHT22;43657;52.698;6.314;2022-11-27T01:24:34;4.80;99.90
57829;DHT22;43657;52.698;6.314;2022-11-27T01:27:00;4.80;99.90
57829;DHT22;43657;52.698;6.314;2022-11-27T01:29:26;4.80;99.90
57829;DHT22;43657;52.698;6.314;2022-11-27T01:31:51;4.80;99.90
57829;DHT22;43657;52.698;6.314;2022-11-27T01:34:18;4.70;99.90
57829;DHT22;43657;52.698;6.314;2022-11-27T01:36:44;4.70;99.90
57829;DHT22;43657;52.698;6.314;2022-11-27T01:39:15;4.60;99.90
57829;DHT22;43657;52.698;6.314;2022-11-27T01:41:41;4.60;99.90
57829;DHT22;43657;52.698;6.314;2022-11-27T01:47:04;4.60;99.90
57829;DHT22;43657;52.698;6.314;2022-11-27T01:49:46;4.50;99.90
57829;DHT22;43657;52.698;6.314;2022-11-27T01:52:26;4.50;99.90
57829;DHT22;43657;52.698;6.314;2022-11-27T01:54:58;4.50;99.90
57829;DHT22;43657;52.698;6.314;2022-11-27T01:57:28;4.40;99.90
57829;DHT22;43657;52.698;6.314;2022-11-27T01:59:57;4.50;99.90
57829;DHT22;43657;52.698;6.314;2022-11-27T02:02:24;4.50;99.90
57829;DHT22;43657;52.698;6.314;2022-11-27T02:04:50;4.50;99.90
57829;DHT22;43657;52.698;6.314;2022-11-27T02:07:16;4.40;99.90
57829;DHT22;43657;52.698;6.314;2022-11-27T02:09:45;4.40;99.90
57829;DHT22;43657;52.698;6.314;2022-11-27T02:12:30;4.40;99.90
57829;DHT22;43657;52.698;6.314;2022-11-27T02:15:09;4.50;99.90
57829;DHT22;43657;52.698;6.314;2022-11-27T02:17:51;4.50;99.90
57829;DHT22;43657;52.698;6.314;2022-11-27T02:20:38;4.40;99.90
57829;DHT22;43657;52.698;6.314;2022-11-27T02:31:27;4.50;99.90
57829;DHT22;43657;52.698;6.314;2022-11-27T02:34:13;4.50;99.90
57829;DHT22;43657;52.698;6.314;2022-11-27T02:36:45;4.50;99.90
57829;DHT22;43657;52.698;6.314;2022-11-27T02:39:13;4.50;99.90
57829;DHT22;43657;52.698;6.314;2022-11-27T02:44:44;4.50;99.90
57829;DHT22;43657;52.698;6.314;2022-11-27T02:47:11;4.60;99.90
57829;DHT22;43657;52.698;6.314;2022-11-27T02:49:39;4.60;99.90
57829;DHT22;43657;52.698;6.314;2022-11-27T02:52:05;4.60;99.90
57829;DHT22;43657;52.698;6.314;2022-11-27T02:54:33;4.60;99.90
57829;DHT22;43657;52.698;6.314;2022-11-27T02:57:01;4.60;99.90
57829;DHT22;43657;52.698;6.314;2022-11-27T02:59:31;4.60;99.90
57829;DHT22;43657;52.698;6.314;2022-11-27T03:02:04;4.60;99.90
57829;DHT22;43657;52.698;6.314;2022-11-27T03:04:34;4.60;99.90
57829;DHT22;43657;52.698;6.314;2022-11-27T03:07:05;4.70;99.90
57829;DHT22;43657;52.698;6.314;2022-11-27T03:09:38;4.60;99.90
57829;DHT22;43657;52.698;6.314;2022-11-27T03:12:04;4.60;99.90
57829;DHT22;43657;52.698;6.314;2022-11-27T03:14:30;4.60;99.90
57829;DHT22;43657;52.698;6.314;2022-11-27T03:19:47;4.60;99.90
57829;DHT22;43657;52.698;6.314;2022-11-27T03:22:15;4.60;99.90
57829;DHT22;43657;52.698;6.314;2022-11-27T03:24:41;4.60;99.90
57829;DHT22;43657;52.698;6.314;2022-11-27T03:27:08;4.50;99.90
57829;DHT22;43657;52.698;6.314;2022-11-27T03:29:50;4.50;99.90
57829;DHT22;43657;52.698;6.314;2022-11-27T03:32:17;4.60;99.90
57829;DHT22;43657;52.698;6.314;2022-11-27T03:34:43;4.70;99.90
57829;DHT22;43657;52.698;6.314;2022-11-27T03:37:10;4.60;99.90
57829;DHT22;43657;52.698;6.314;2022-11-27T03:39:35;4.60;99.90
57829;DHT22;43657;52.698;6.314;2022-11-27T03:45:05;4.70;99.90
57829;DHT22;43657;52.698;6.314;2022-11-27T03:58:10;4.80;99.90
57829;DHT22;43657;52.698;6.314;2022-11-27T04:00:41;5.00;99.90
57829;DHT22;43657;52.698;6.314;2022-11-27T04:03:10;4.90;99.90
57829;DHT22;43657;52.698;6.314;2022-11-27T04:05:36;4.90;99.90
57829;DHT22;43657;52.698;6.314;2022-11-27T04:08:03;4.90;99.90
57829;DHT22;43657;52.698;6.314;2022-11-27T04:10:29;4.90;99.90
57829;DHT22;43657;52.698;6.314;2022-11-27T04:12:54;4.90;99.90
57829;DHT22;43657;52.698;6.314;2022-11-27T04:15:20;5.00;99.90
57829;DHT22;43657;52.698;6.314;2022-11-27T04:17:46;5.00;99.90
57829;DHT22;43657;52.698;6.314;2022-11-27T04:20:13;5.00;99.90
57829;DHT22;43657;52.698;6.314;2022-11-27T04:22:39;5.00;99.90
57829;DHT22;43657;52.698;6.314;2022-11-27T04:25:05;5.00;99.90
57829;DHT22;43657;52.698;6.314;2022-11-27T04:27:31;5.00;99.90
57829;DHT22;43657;52.698;6.314;2022-11-27T04:29:57;5.00;99.90
57829;DHT22;43657;52.698;6.314;2022-11-27T04:32:23;5.00;99.90
57829;DHT22;43657;52.698;6.314;2022-11-27T04:34:49;5.00;99.90
57829;DHT22;43657;52.698;6.314;2022-11-27T04:37:15;5.00;99.90
57829;DHT22;43657;52.698;6.314;2022-11-27T04:39:40;5.00;99.90
57829;DHT22;43657;52.698;6.314;2022-11-27T04:42:06;5.00;99.90
57829;DHT22;43657;52.698;6.314;2022-11-27T04:44:32;5.00;99.90
57829;DHT22;43657;52.698;6.314;2022-11-27T04:46:58;5.00;99.90
57829;DHT22;43657;52.698;6.314;2022-11-27T04:49:24;5.00;99.90
57829;DHT22;43657;52.698;6.314;2022-11-27T04:51:50;5.00;99.90
57829;DHT22;43657;52.698;6.314;2022-11-27T04:54:16;5.00;99.90
57829;DHT22;43657;52.698;6.314;2022-11-27T04:56:42;5.00;99.90
57829;DHT22;43657;52.698;6.314;2022-11-27T04:59:08;5.00;99.90
57829;DHT22;43657;52.698;6.314;2022-11-27T05:01:34;5.00;99.90
57829;DHT22;43657;52.698;6.314;2022-11-27T05:04:00;5.00;99.90
57829;DHT22;43657;52.698;6.314;2022-11-27T05:06:26;5.00;99.90
57829;DHT22;43657;52.698;6.314;2022-11-27T05:08:53;5.00;99.90
57829;DHT22;43657;52.698;6.314;2022-11-27T05:11:25;5.00;99.90
57829;DHT22;43657;52.698;6.314;2022-11-27T05:13:50;5.00;99.90
57829;DHT22;43657;52.698;6.314;2022-11-27T05:16:36;4.90;99.90
57829;DHT22;43657;52.698;6.314;2022-11-27T05:19:02;4.90;99.90
57829;DHT22;43657;52.698;6.314;2022-11-27T05:21:29;4.90;99.90
57829;DHT22;43657;52.698;6.314;2022-11-27T05:23:54;4.90;99.90
57829;DHT22;43657;52.698;6.314;2022-11-27T05:26:20;4.90;99.90
57829;DHT22;43657;52.698;6.314;2022-11-27T05:28:46;4.90;99.90
57829;DHT22;43657;52.698;6.314;2022-11-27T05:31:12;4.80;99.90
57829;DHT22;43657;52.698;6.314;2022-11-27T05:33:37;4.90;99.90
57829;DHT22;43657;52.698;6.314;2022-11-27T05:36:03;4.90;99.90
57829;DHT22;43657;52.698;6.314;2022-11-27T05:38:29;4.90;99.90
57829;DHT22;43657;52.698;6.314;2022-11-27T05:40:55;4.90;99.90
57829;DHT22;43657;52.698;6.314;2022-11-27T05:43:21;4.90;99.90
57829;DHT22;43657;52.698;6.314;2022-11-27T05:45:47;4.90;99.90
57829;DHT22;43657;52.698;6.314;2022-11-27T05:48:13;4.90;99.90
57829;DHT22;43657;52.698;6.314;2022-11-27T05:50:39;4.90;99.90
57829;DHT22;43657;52.698;6.314;2022-11-27T05:53:05;4.90;99.90
57829;DHT22;43657;52.698;6.314;2022-11-27T05:55:31;4.90;99.90
57829;DHT22;43657;52.698;6.314;2022-11-27T05:57:57;4.90;99.90
57829;DHT22;43657;52.698;6.314;2022-11-27T06:00:23;4.90;99.90
57829;DHT22;43657;52.698;6.314;2022-11-27T06:02:51;5.00;99.90
57829;DHT22;43657;52.698;6.314;2022-11-27T06:05:17;5.00;99.90
57829;DHT22;43657;52.698;6.314;2022-11-27T06:07:43;4.90;99.90
57829;DHT22;43657;52.698;6.314;2022-11-27T06:10:09;5.00;99.90
57829;DHT22;43657;52.698;6.314;2022-11-27T06:12:35;5.00;99.90
57829;DHT22;43657;52.698;6.314;2022-11-27T06:15:01;5.00;99.90
57829;DHT22;43657;52.698;6.314;2022-11-27T06:17:27;5.00;99.90
57829;DHT22;43657;52.698;6.314;2022-11-27T06:19:53;5.00;99.90
57829;DHT22;43657;52.698;6.314;2022-11-27T06:22:19;5.00;99.90
57829;DHT22;43657;52.698;6.314;2022-11-27T06:24:44;5.00;99.90
57829;DHT22;43657;52.698;6.314;2022-11-27T06:27:10;5.00;99.90
57829;DHT22;43657;52.698;6.314;2022-11-27T06:29:36;5.00;99.90
57829;DHT22;43657;52.698;6.314;2022-11-27T06:32:03;5.00;99.90
57829;DHT22;43657;52.698;6.314;2022-11-27T06:34:29;5.00;99.90
57829;DHT22;43657;52.698;6.314;2022-11-27T06:36:55;5.00;99.90
57829;DHT22;43657;52.698;6.314;2022-11-27T06:39:21;5.00;99.90
57829;DHT22;43657;52.698;6.314;2022-11-27T06:41:47;5.00;99.90
57829;DHT22;43657;52.698;6.314;2022-11-27T06:44:12;5.10;99.90
57829;DHT22;43657;52.698;6.314;2022-11-27T06:46:41;5.00;99.90
57829;DHT22;43657;52.698;6.314;2022-11-27T06:49:08;5.10;99.90
57829;DHT22;43657;52.698;6.314;2022-11-27T06:51:34;5.10;99.90
57829;DHT22;43657;52.698;6.314;2022-11-27T06:54:00;5.10;99.90
57829;DHT22;43657;52.698;6.314;2022-11-27T06:56:27;5.10;99.90
57829;DHT22;43657;52.698;6.314;2022-11-27T06:58:55;5.10;99.90
57829;DHT22;43657;52.698;6.314;2022-11-27T07:01:23;5.10;99.90
57829;DHT22;43657;52.698;6.314;2022-11-27T07:03:50;5.10;99.90
57829;DHT22;43657;52.698;6.314;2022-11-27T07:06:22;5.10;99.90
57829;DHT22;43657;52.698;6.314;2022-11-27T07:08:49;5.10;99.90
57829;DHT22;43657;52.698;6.314;2022-11-27T07:11:20;5.10;99.90
57829;DHT22;43657;52.698;6.314;2022-11-27T07:13:47;5.10;99.90
57829;DHT22;43657;52.698;6.314;2022-11-27T07:16:14;5.20;99.90
57829;DHT22;43657;52.698;6.314;2022-11-27T07:18:43;5.10;99.90
57829;DHT22;43657;52.698;6.314;2022-11-27T07:21:10;5.10;99.90
57829;DHT22;43657;52.698;6.314;2022-11-27T07:23:36;5.10;99.90
57829;DHT22;43657;52.698;6.314;2022-11-27T07:26:08;5.10;99.90
57829;DHT22;43657;52.698;6.314;2022-11-27T07:28:34;5.10;99.90
57829;DHT22;43657;52.698;6.314;2022-11-27T07:31:01;5.10;99.90
57829;DHT22;43657;52.698;6.314;2022-11-27T07:33:27;5.20;99.90
57829;DHT22;43657;52.698;6.314;2022-11-27T07:36:15;5.20;99.90
57829;DHT22;43657;52.698;6.314;2022-11-27T07:38:42;5.20;99.90
57829;DHT22;43657;52.698;6.314;2022-11-27T07:41:08;5.30;99.90
57829;DHT22;43657;52.698;6.314;2022-11-27T07:43:35;5.20;99.90
57829;DHT22;43657;52.698;6.314;2022-11-27T07:46:12;5.20;99.90
57829;DHT22;43657;52.698;6.314;2022-11-27T07:48:38;5.20;99.90
57829;DHT22;43657;52.698;6.314;2022-11-27T07:51:06;5.20;99.90
57829;DHT22;43657;52.698;6.314;2022-11-27T07:53:35;5.30;99.90
57829;DHT22;43657;52.698;6.314;2022-11-27T07:56:01;5.30;99.90
57829;DHT22;43657;52.698;6.314;2022-11-27T07:58:27;5.30;99.90
57829;DHT22;43657;52.698;6.314;2022-11-27T08:00:53;5.30;99.90
57829;DHT22;43657;52.698;6.314;2022-11-27T08:03:21;5.30;99.90
57829;DHT22;43657;52.698;6.314;2022-11-27T08:05:47;5.30;99.90
57829;DHT22;43657;52.698;6.314;2022-11-27T08:08:15;5.40;99.90
57829;DHT22;43657;52.698;6.314;2022-11-27T08:10:41;5.40;99.90
57829;DHT22;43657;52.698;6.314;2022-11-27T08:13:08;5.40;99.90
57829;DHT22;43657;52.698;6.314;2022-11-27T08:15:35;5.50;99.90
57829;DHT22;43657;52.698;6.314;2022-11-27T08:18:01;5.50;99.90
57829;DHT22;43657;52.698;6.314;2022-11-27T08:20:28;5.50;99.90
57829;DHT22;43657;52.698;6.314;2022-11-27T08:22:54;5.50;99.90
57829;DHT22;43657;52.698;6.314;2022-11-27T08:25:20;5.50;99.90
57829;DHT22;43657;52.698;6.314;2022-11-27T08:27:46;5.60;99.90
57829;DHT22;43657;52.698;6.314;2022-11-27T08:30:15;5.70;99.90
57829;DHT22;43657;52.698;6.314;2022-11-27T08:32:42;5.60;99.90
57829;DHT22;43657;52.698;6.314;2022-11-27T08:35:09;5.60;99.90
57829;DHT22;43657;52.698;6.314;2022-11-27T08:37:35;5.60;99.90
57829;DHT22;43657;52.698;6.314;2022-11-27T08:40:01;5.70;99.90
57829;DHT22;43657;52.698;6.314;2022-11-27T08:42:28;5.60;99.90
57829;DHT22;43657;52.698;6.314;2022-11-27T08:44:54;5.70;99.90
57829;DHT22;43657;52.698;6.314;2022-11-27T08:47:22;5.70;99.90
57829;DHT22;43657;52.698;6.314;2022-11-27T08:49:53;5.70;99.90
57829;DHT22;43657;52.698;6.314;2022-11-27T08:52:19;5.70;99.90
57829;DHT22;43657;52.698;6.314;2022-11-27T08:54:46;5.70;99.90
57829;DHT22;43657;52.698;6.314;2022-11-27T08:57:15;5.70;99.90
57829;DHT22;43657;52.698;6.314;2022-11-27T08:59:41;5.80;99.90
57829;DHT22;43657;52.698;6.314;2022-11-27T09:02:10;5.70;99.90
57829;DHT22;43657;52.698;6.314;2022-11-27T09:04:37;5.70;99.90
57829;DHT22;43657;52.698;6.314;2022-11-27T09:07:06;5.70;99.90
57829;DHT22;43657;52.698;6.314;2022-11-27T09:09:35;5.70;99.90
57829;DHT22;43657;52.698;6.314;2022-11-27T09:12:01;5.70;99.90
57829;DHT22;43657;52.698;6.314;2022-11-27T09:14:30;5.70;99.90
57829;DHT22;43657;52.698;6.314;2022-11-27T09:16:56;5.70;99.90
57829;DHT22;43657;52.698;6.314;2022-11-27T09:19:21;5.80;99.90
57829;DHT22;43657;52.698;6.314;2022-11-27T09:21:49;5.70;99.90
57829;DHT22;43657;52.698;6.314;2022-11-27T09:24:15;5.80;99.90
57829;DHT22;43657;52.698;6.314;2022-11-27T09:26:41;5.70;99.90
57829;DHT22;43657;52.698;6.314;2022-11-27T09:29:12;5.70;99.90
57829;DHT22;43657;52.698;6.314;2022-11-27T09:31:39;5.70;99.90
57829;DHT22;43657;52.698;6.314;2022-11-27T09:34:06;5.70;99.90
57829;DHT22;43657;52.698;6.314;2022-11-27T09:36:33;5.70;99.90
57829;DHT22;43657;52.698;6.314;2022-11-27T09:38:59;5.70;99.90
57829;DHT22;43657;52.698;6.314;2022-11-27T09:41:49;5.70;99.90
57829;DHT22;43657;52.698;6.314;2022-11-27T09:44:39;5.70;99.90
57829;DHT22;43657;52.698;6.314;2022-11-27T09:47:29;5.70;99.90
57829;DHT22;43657;52.698;6.314;2022-11-27T09:50:04;5.70;99.90
57829;DHT22;43657;52.698;6.314;2022-11-27T09:52:41;5.70;99.90
57829;DHT22;43657;52.698;6.314;2022-11-27T09:55:33;5.70;99.90
57829;DHT22;43657;52.698;6.314;2022-11-27T09:58:05;5.70;99.90
57829;DHT22;43657;52.698;6.314;2022-11-27T10:00:32;5.70;99.90
57829;DHT22;43657;52.698;6.314;2022-11-27T10:02:59;5.70;99.90
57829;DHT22;43657;52.698;6.314;2022-11-27T10:05:35;5.70;99.90
57829;DHT22;43657;52.698;6.314;2022-11-27T10:11:32;5.80;99.90
57829;DHT22;43657;52.698;6.314;2022-11-27T10:14:27;5.80;99.90
57829;DHT22;43657;52.698;6.314;2022-11-27T10:17:13;5.80;99.90
57829;DHT22;43657;52.698;6.314;2022-11-27T10:19:54;5.80;99.90
57829;DHT22;43657;52.698;6.314;2022-11-27T10:22:53;5.90;99.90
57829;DHT22;43657;52.698;6.314;2022-11-27T10:28:12;5.90;99.90
57829;DHT22;43657;52.698;6.314;2022-11-27T10:33:43;6.00;99.90
57829;DHT22;43657;52.698;6.314;2022-11-27T10:36:42;5.90;99.90
57829;DHT22;43657;52.698;6.314;2022-11-27T10:39:39;5.90;99.90
57829;DHT22;43657;52.698;6.314;2022-11-27T10:42:14;5.90;99.90
57829;DHT22;43657;52.698;6.314;2022-11-27T10:47:26;5.90;99.90
57829;DHT22;43657;52.698;6.314;2022-11-27T10:49:55;5.90;99.90
57829;DHT22;43657;52.698;6.314;2022-11-27T10:52:25;6.00;99.90
57829;DHT22;43657;52.698;6.314;2022-11-27T10:55:02;5.90;99.90
57829;DHT22;43657;52.698;6.314;2022-11-27T10:57:49;6.00;99.90
57829;DHT22;43657;52.698;6.314;2022-11-27T11:00:23;6.00;99.90
57829;DHT22;43657;52.698;6.314;2022-11-27T11:03:03;6.00;99.90
57829;DHT22;43657;52.698;6.314;2022-11-27T11:05:58;6.00;99.90
57829;DHT22;43657;52.698;6.314;2022-11-27T11:09:38;6.00;99.90
57829;DHT22;43657;52.698;6.314;2022-11-27T11:13:25;6.00;99.90
57829;DHT22;43657;52.698;6.314;2022-11-27T11:16:53;6.10;99.90
57829;DHT22;43657;52.698;6.314;2022-11-27T11:20:22;6.00;99.90
57829;DHT22;43657;52.698;6.314;2022-11-27T11:22:49;6.10;99.90
57829;DHT22;43657;52.698;6.314;2022-11-27T11:25:19;6.10;99.90
57829;DHT22;43657;52.698;6.314;2022-11-27T11:27:47;6.10;99.90
57829;DHT22;43657;52.698;6.314;2022-11-27T11:30:27;6.10;99.90
57829;DHT22;43657;52.698;6.314;2022-11-27T11:33:01;6.10;99.90
57829;DHT22;43657;52.698;6.314;2022-11-27T11:35:31;6.10;99.90
57829;DHT22;43657;52.698;6.314;2022-11-27T11:38:01;6.20;99.90
57829;DHT22;43657;52.698;6.314;2022-11-27T11:40:35;6.10;99.90
57829;DHT22;43657;52.698;6.314;2022-11-27T11:43:24;6.20;99.90
57829;DHT22;43657;52.698;6.314;2022-11-27T11:45:50;6.20;99.90
57829;DHT22;43657;52.698;6.314;2022-11-27T11:49:00;6.20;99.90
57829;DHT22;43657;52.698;6.314;2022-11-27T11:52:53;6.20;99.90
57829;DHT22;43657;52.698;6.314;2022-11-27T11:55:44;6.20;99.90
57829;DHT22;43657;52.698;6.314;2022-11-27T12:01:09;6.20;99.90
57829;DHT22;43657;52.698;6.314;2022-11-27T12:06:49;6.20;99.90
57829;DHT22;43657;52.698;6.314;2022-11-27T12:18:08;6.30;99.90
57829;DHT22;43657;52.698;6.314;2022-11-27T12:20:46;6.30;99.90
57829;DHT22;43657;52.698;6.314;2022-11-27T12:26:24;6.30;99.90
57829;DHT22;43657;52.698;6.314;2022-11-27T12:29:22;6.30;99.90
57829;DHT22;43657;52.698;6.314;2022-11-27T12:32:19;6.40;99.90
57829;DHT22;43657;52.698;6.314;2022-11-27T12:34:54;6.30;99.90
57829;DHT22;43657;52.698;6.314;2022-11-27T12:43:29;6.30;99.90
57829;DHT22;43657;52.698;6.314;2022-11-27T12:46:21;6.30;99.90
57829;DHT22;43657;52.698;6.314;2022-11-27T12:49:22;6.40;99.90
57829;DHT22;43657;52.698;6.314;2022-11-27T12:52:02;6.30;99.90
57829;DHT22;43657;52.698;6.314;2022-11-27T12:54:46;6.30;99.90
57829;DHT22;43657;52.698;6.314;2022-11-27T12:57:16;6.30;99.90
57829;DHT22;43657;52.698;6.314;2022-11-27T12:59:54;6.30;99.90
57829;DHT22;43657;52.698;6.314;2022-11-27T13:02:41;6.30;99.90
57829;DHT22;43657;52.698;6.314;2022-11-27T13:05:18;6.30;99.90
57829;DHT22;43657;52.698;6.314;2022-11-27T13:07:53;6.30;99.90
57829;DHT22;43657;52.698;6.314;2022-11-27T13:13:17;6.30;99.90
57829;DHT22;43657;52.698;6.314;2022-11-27T13:15:56;6.30;99.90
57829;DHT22;43657;52.698;6.314;2022-11-27T13:21:12;6.30;99.90
57829;DHT22;43657;52.698;6.314;2022-11-27T13:23:42;6.30;99.90
57829;DHT22;43657;52.698;6.314;2022-11-27T13:26:18;6.30;99.90
57829;DHT22;43657;52.698;6.314;2022-11-27T13:28:50;6.30;99.90
57829;DHT22;43657;52.698;6.314;2022-11-27T13:31:31;6.30;99.90
57829;DHT22;43657;52.698;6.314;2022-11-27T13:34:04;6.30;99.90
57829;DHT22;43657;52.698;6.314;2022-11-27T13:36:40;6.30;99.90
57829;DHT22;43657;52.698;6.314;2022-11-27T13:42:18;6.30;99.90
57829;DHT22;43657;52.698;6.314;2022-11-27T13:45:06;6.30;99.90
57829;DHT22;43657;52.698;6.314;2022-11-27T13:47:41;6.30;99.90
57829;DHT22;43657;52.698;6.314;2022-11-27T13:52:34;6.30;99.90
57829;DHT22;43657;52.698;6.314;2022-11-27T13:55:03;6.30;99.90
57829;DHT22;43657;52.698;6.314;2022-11-27T13:57:31;6.30;99.90
57829;DHT22;43657;52.698;6.314;2022-11-27T14:05:12;6.30;99.90
57829;DHT22;43657;52.698;6.314;2022-11-27T14:07:54;6.30;99.90
57829;DHT22;43657;52.698;6.314;2022-11-27T14:10:23;6.30;99.90
57829;DHT22;43657;52.698;6.314;2022-11-27T14:13:02;6.30;99.90
57829;DHT22;43657;52.698;6.314;2022-11-27T14:15:30;6.30;99.90
57829;DHT22;43657;52.698;6.314;2022-11-27T14:18:17;6.30;99.90
57829;DHT22;43657;52.698;6.314;2022-11-27T14:20:50;6.30;99.90
57829;DHT22;43657;52.698;6.314;2022-11-27T14:23:35;6.40;99.90
57829;DHT22;43657;52.698;6.314;2022-11-27T14:26:04;6.30;99.90
57829;DHT22;43657;52.698;6.314;2022-11-27T14:28:32;6.30;99.90
57829;DHT22;43657;52.698;6.314;2022-11-27T14:31:00;6.30;99.90
57829;DHT22;43657;52.698;6.314;2022-11-27T14:33:30;6.30;99.90
57829;DHT22;43657;52.698;6.314;2022-11-27T14:36:01;6.30;99.90
57829;DHT22;43657;52.698;6.314;2022-11-27T14:38:29;6.30;99.90
57829;DHT22;43657;52.698;6.314;2022-11-27T14:41:10;6.30;99.90
57829;DHT22;43657;52.698;6.314;2022-11-27T14:43:39;6.30;99.90
57829;DHT22;43657;52.698;6.314;2022-11-27T14:46:17;6.30;99.90
57829;DHT22;43657;52.698;6.314;2022-11-27T14:48:49;6.30;99.90
57829;DHT22;43657;52.698;6.314;2022-11-27T14:51:21;6.30;99.90
57829;DHT22;43657;52.698;6.314;2022-11-27T14:53:50;6.30;99.90
57829;DHT22;43657;52.698;6.314;2022-11-27T14:56:18;6.30;99.90
57829;DHT22;43657;52.698;6.314;2022-11-27T14:58:50;6.20;99.90
57829;DHT22;43657;52.698;6.314;2022-11-27T15:03:57;6.30;99.90
57829;DHT22;43657;52.698;6.314;2022-11-27T15:06:25;6.30;99.90
57829;DHT22;43657;52.698;6.314;2022-11-27T15:08:53;6.30;99.90
57829;DHT22;43657;52.698;6.314;2022-11-27T15:11:19;6.30;99.90
57829;DHT22;43657;52.698;6.314;2022-11-27T15:13:56;6.20;99.90
57829;DHT22;43657;52.698;6.314;2022-11-27T15:16:25;6.30;99.90
57829;DHT22;43657;52.698;6.314;2022-11-27T15:19:01;6.30;99.90
57829;DHT22;43657;52.698;6.314;2022-11-27T15:21:28;6.30;99.90
57829;DHT22;43657;52.698;6.314;2022-11-27T15:23:56;6.30;99.90
57829;DHT22;43657;52.698;6.314;2022-11-27T15:26:38;6.20;99.90
57829;DHT22;43657;52.698;6.314;2022-11-27T15:32:22;6.30;99.90
57829;DHT22;43657;52.698;6.314;2022-11-27T15:34:49;6.30;99.90
57829;DHT22;43657;52.698;6.314;2022-11-27T15:37:29;6.30;99.90
57829;DHT22;43657;52.698;6.314;2022-11-27T15:39:58;6.30;99.90
57829;DHT22;43657;52.698;6.314;2022-11-27T15:42:25;6.30;99.90
57829;DHT22;43657;52.698;6.314;2022-11-27T15:44:54;6.30;99.90
57829;DHT22;43657;52.698;6.314;2022-11-27T15:47:29;6.30;99.90
57829;DHT22;43657;52.698;6.314;2022-11-27T15:49:57;6.30;99.90
57829;DHT22;43657;52.698;6.314;2022-11-27T15:52:23;6.30;99.90
57829;DHT22;43657;52.698;6.314;2022-11-27T15:54:49;6.30;99.90
57829;DHT22;43657;52.698;6.314;2022-11-27T15:57:15;6.30;99.90
57829;DHT22;43657;52.698;6.314;2022-11-27T15:59:44;6.20;99.90
57829;DHT22;43657;52.698;6.314;2022-11-27T16:02:10;6.30;99.90
57829;DHT22;43657;52.698;6.314;2022-11-27T16:04:37;6.30;99.90
57829;DHT22;43657;52.698;6.314;2022-11-27T16:07:03;6.30;99.90
57829;DHT22;43657;52.698;6.314;2022-11-27T16:09:29;6.30;99.90
57829;DHT22;43657;52.698;6.314;2022-11-27T16:11:54;6.30;99.90
57829;DHT22;43657;52.698;6.314;2022-11-27T16:14:21;6.20;99.90
57829;DHT22;43657;52.698;6.314;2022-11-27T16:16:47;6.30;99.90
57829;DHT22;43657;52.698;6.314;2022-11-27T16:19:16;6.30;99.90
57829;DHT22;43657;52.698;6.314;2022-11-27T16:21:42;6.30;99.90
57829;DHT22;43657;52.698;6.314;2022-11-27T16:24:11;6.20;99.90
57829;DHT22;43657;52.698;6.314;2022-11-27T16:26:38;6.30;99.90
57829;DHT22;43657;52.698;6.314;2022-11-27T16:29:08;6.20;99.90
57829;DHT22;43657;52.698;6.314;2022-11-27T16:31:34;6.20;99.90
57829;DHT22;43657;52.698;6.314;2022-11-27T16:34:00;6.20;99.90
57829;DHT22;43657;52.698;6.314;2022-11-27T16:36:30;6.30;99.90
57829;DHT22;43657;52.698;6.314;2022-11-27T16:38:56;6.30;99.90
57829;DHT22;43657;52.698;6.314;2022-11-27T16:41:23;6.20;99.90
57829;DHT22;43657;52.698;6.314;2022-11-27T16:43:52;6.20;99.90
57829;DHT22;43657;52.698;6.314;2022-11-27T16:46:23;6.20;99.90
57829;DHT22;43657;52.698;6.314;2022-11-27T16:48:50;6.30;99.90
57829;DHT22;43657;52.698;6.314;2022-11-27T16:51:27;6.30;99.90
57829;DHT22;43657;52.698;6.314;2022-11-27T16:53:56;6.20;99.90
57829;DHT22;43657;52.698;6.314;2022-11-27T16:56:24;6.30;99.90
57829;DHT22;43657;52.698;6.314;2022-11-27T16:58:56;6.20;99.90
57829;DHT22;43657;52.698;6.314;2022-11-27T17:01:28;6.30;99.90
57829;DHT22;43657;52.698;6.314;2022-11-27T17:03:55;6.30;99.90
57829;DHT22;43657;52.698;6.314;2022-11-27T17:06:28;6.30;99.90
57829;DHT22;43657;52.698;6.314;2022-11-27T17:08:56;6.30;99.90
57829;DHT22;43657;52.698;6.314;2022-11-27T17:11:31;6.30;99.90
57829;DHT22;43657;52.698;6.314;2022-11-27T17:13:59;6.30;99.90
57829;DHT22;43657;52.698;6.314;2022-11-27T17:16:28;6.20;99.90
57829;DHT22;43657;52.698;6.314;2022-11-27T17:18:54;6.20;99.90
57829;DHT22;43657;52.698;6.314;2022-11-27T17:21:23;6.30;99.90
57829;DHT22;43657;52.698;6.314;2022-11-27T17:23:52;6.30;99.90
57829;DHT22;43657;52.698;6.314;2022-11-27T17:26:20;6.30;99.90
57829;DHT22;43657;52.698;6.314;2022-11-27T17:28:48;6.30;99.90
57829;DHT22;43657;52.698;6.314;2022-11-27T17:31:28;6.30;99.90
57829;DHT22;43657;52.698;6.314;2022-11-27T17:33:59;6.30;99.90
57829;DHT22;43657;52.698;6.314;2022-11-27T17:36:28;6.30;99.90
57829;DHT22;43657;52.698;6.314;2022-11-27T17:38:57;6.30;99.90